Weather reports worldwide

Advertisment
Matera, Italy (16314): temperature & dewpoint: 09.07.2018 20:00:00 - 15.07.2018 20:00:00 (CEST)Matera, Italy (16314): wind speed: 09.07.2018 20:00:00 - 15.07.2018 20:00:00 (CEST)Matera, Italy (16314): wind direction: 09.07.2018 20:00:00 - 15.07.2018 20:00:00 (CEST)Matera, Italy (16314): reduced air pressure: 09.07.2018 20:00:00 - 15.07.2018 20:00:00 (CEST)Matera, Italy (16314): precipitation: 09.07.2018 20:00:00 - 15.07.2018 20:00:00 (CEST)
Date & Time tt [°C] td [°C] ff [km/h] ff [kn] dd ppp [hPa] rr [mm]
15.07.2018 20:00:00 27,9 11,0 11 6 SW 1013,7 0,0
15.07.2018 19:00:00 29,5 9,1 16 9 SSW 1013,2 -
15.07.2018 18:00:00 30,7 10,7 22 12 SSW 1012,6 -
15.07.2018 17:00:00 31,9 10,6 22 12 SSW 1012,6 -
15.07.2018 16:00:00 32,6 10,7 29 16 SSW 1012,5 -
15.07.2018 15:00:00 31,9 11,7 18 10 SSW 1013,1 -
15.07.2018 14:00:00 31,9 11,7 18 10 SW 1013,5 0,0
15.07.2018 13:00:00 31,4 11,8 13 7 SW 1013,8 -
15.07.2018 12:00:00 30,5 11,5 15 8 WSW 1014,2 -
15.07.2018 11:00:00 29,1 11,7 18 10 SSW 1014,5 -
15.07.2018 10:00:00 28,2 12,1 11 6 WSW 1014,8 -
15.07.2018 09:00:00 27,5 11,5 9 5 S 1014,9 -
15.07.2018 08:00:00 26,4 10,5 5 3 SSE 1015,3 0,0
15.07.2018 07:00:00 24,1 7,2 5 3 ESE 1015,6 -
15.07.2018 06:00:00 23,4 5,3 5 3 ENE 1015,9 -
15.07.2018 05:00:00 23,1 5,5 5 3 NNE 1015,9 -
15.07.2018 04:00:00 23,7 6,0 4 2 NNE 1015,9 -
15.07.2018 03:00:00 23,8 6,1 8 4 N 1016,2 -
15.07.2018 02:00:00 21,8 5,2 4 2 WNW 1017,1 0,0
15.07.2018 01:00:00 23,4 6,6 4 2 WSW 1016,8 -
15.07.2018 00:00:00 22,9 6,6 4 2 S 1017,1 -
14.07.2018 23:00:00 23,7 8,1 11 6 NE 1017,0 -
14.07.2018 22:00:00 23,9 10,5 11 6 NE 1017,0 -
14.07.2018 21:00:00 24,2 12,5 13 7 E 1016,7 -
14.07.2018 20:00:00 26,5 13,5 24 13 ENE 1016,5 0,0
14.07.2018 19:00:00 28,2 14,7 31 17 ENE 1015,9 -
14.07.2018 18:00:00 28,9 15,0 18 10 ENE 1016,0 -
14.07.2018 17:00:00 29,3 15,7 28 15 ENE 1016,1 -
14.07.2018 16:00:00 30,4 15,6 26 14 ENE 1016,0 -
14.07.2018 15:00:00 31,2 15,2 18 10 NE 1016,1 -
14.07.2018 14:00:00 31,3 14,4 29 16 NE 1016,5 0,0
14.07.2018 13:00:00 30,7 14,3 24 13 NE 1017,2 -
14.07.2018 12:00:00 29,7 15,0 29 16 NE 1017,6 -
14.07.2018 11:00:00 28,9 14,7 18 10 NE 1018,0 -
14.07.2018 10:00:00 27,9 14,5 22 12 NE 1018,1 -
14.07.2018 09:00:00 26,4 15,1 16 9 NNE 1018,3 -
14.07.2018 08:00:00 24,3 15,2 18 10 NNE 1018,1 0,0
14.07.2018 07:00:00 22,3 14,3 18 10 N 1018,4 -
14.07.2018 06:00:00 22,0 12,8 13 7 N 1018,3 -
14.07.2018 05:00:00 22,1 12,6 13 7 N 1018,7 -
14.07.2018 04:00:00 22,6 12,5 13 7 N 1018,3 -
14.07.2018 03:00:00 22,8 12,4 13 7 N 1018,6 -
14.07.2018 02:00:00 22,4 12,6 11 6 NNE 1019,0 0,0
14.07.2018 01:00:00 22,2 12,7 13 7 NNE 1019,3 -
14.07.2018 00:00:00 22,5 14,8 9 5 NNE 1019,6 -
13.07.2018 23:00:00 23,5 15,2 11 6 NE 1019,5 -
13.07.2018 22:00:00 23,5 15,2 11 6 ENE 1019,5 -
13.07.2018 21:00:00 24,9 14,6 13 7 E 1018,2 -
13.07.2018 20:00:00 26,8 15,1 15 8 E 1017,3 0,0
13.07.2018 19:00:00 28,3 15,5 18 10 E 1016,7 -
13.07.2018 18:00:00 29,4 15,8 16 9 ESE 1016,3 -
13.07.2018 17:00:00 30,0 16,0 21 11 ESE 1016,0 -
13.07.2018 16:00:00 30,4 16,7 26 14 E 1016,1 -
13.07.2018 15:00:00 30,4 17,8 26 14 E 1016,3 -
13.07.2018 14:00:00 31,1 16,3 5 3 NE 1016,7 0,0
13.07.2018 13:00:00 30,9 15,3 15 8 S 1016,8 -
13.07.2018 12:00:00 30,2 15,8 4 2 N 1017,5 -
13.07.2018 11:00:00 28,8 16,6 15 8 NE 1017,5 -
13.07.2018 10:00:00 27,1 16,3 13 7 NE 1017,8 -
13.07.2018 09:00:00 25,5 15,4 13 7 NNE 1018,0 -
13.07.2018 08:00:00 24,0 14,0 15 8 NNE 1018,0 0,0
13.07.2018 07:00:00 22,3 13,8 13 7 N 1018,1 -
13.07.2018 06:00:00 20,9 13,0 15 8 N 1018,2 -
13.07.2018 05:00:00 21,5 13,3 16 9 N 1017,9 -
13.07.2018 04:00:00 20,8 14,1 13 7 NNE 1018,0 -
13.07.2018 03:00:00 21,7 15,2 9 5 NNE 1018,1 -
13.07.2018 02:00:00 22,6 15,8 11 6 N 1018,0 0,0
13.07.2018 01:00:00 22,7 14,7 13 7 N 1018,0 -
13.07.2018 00:00:00 23,0 15,0 11 6 NNE 1017,9 -
12.07.2018 23:00:00 23,0 13,7 13 7 NE 1017,8 -
12.07.2018 22:00:00 24,5 13,6 11 6 NW 1017,2 -
12.07.2018 21:00:00 25,3 12,5 0 0 N 1016,6 -
12.07.2018 20:00:00 26,3 13,7 15 8 S 1016,0 0,0
12.07.2018 19:00:00 27,5 14,4 11 6 SE 1015,3 -
12.07.2018 18:00:00 30,4 15,3 26 14 NNE 1014,5 -
12.07.2018 17:00:00 30,3 14,0 21 11 N 1014,8 -
12.07.2018 16:00:00 31,5 15,0 18 10 N 1014,5 -
12.07.2018 15:00:00 31,1 14,7 21 11 NE 1015,0 -
12.07.2018 14:00:00 31,6 14,3 22 12 N 1015,1 0,0
12.07.2018 13:00:00 30,6 14,2 11 6 N 1015,6 -
12.07.2018 12:00:00 28,7 14,8 16 9 N 1015,8 -
12.07.2018 11:00:00 27,0 14,3 18 10 NNE 1016,1 -
12.07.2018 10:00:00 25,8 14,8 13 7 N 1016,2 -
12.07.2018 09:00:00 24,3 14,0 22 12 N 1016,2 -
12.07.2018 08:00:00 23,2 12,8 21 11 N 1016,0 0,0
12.07.2018 07:00:00 22,1 12,3 22 12 N 1016,1 -
12.07.2018 06:00:00 20,2 11,4 15 8 N 1016,4 -
12.07.2018 05:00:00 20,7 11,8 8 4 NNE 1016,0 -
12.07.2018 04:00:00 21,1 12,2 11 6 NNW 1015,9 -
12.07.2018 03:00:00 21,1 16,4 11 6 N 1016,1 -
12.07.2018 02:00:00 20,6 16,6 13 7 NW 1016,4 0,0
12.07.2018 01:00:00 20,9 16,6 5 3 NNW 1016,1 -
12.07.2018 00:00:00 20,5 17,1 8 4 NW 1016,6 -
11.07.2018 23:00:00 21,7 18,0 8 4 SSW 1016,2 -
11.07.2018 22:00:00 22,1 17,6 11 6 SW 1016,0 -
11.07.2018 21:00:00 22,7 17,3 9 5 SW 1015,3 -
11.07.2018 20:00:00 24,3 16,2 16 9 SW 1014,8 0,0
11.07.2018 19:00:00 25,5 14,5 28 15 SW 1013,9 -
11.07.2018 18:00:00 27,1 15,4 34 18 SSW 1013,3 -
11.07.2018 17:00:00 28,4 13,5 28 15 SW 1013,0 -
11.07.2018 16:00:00 28,6 14,7 24 13 SSW 1012,9 -
11.07.2018 15:00:00 29,3 15,0 24 13 SW 1013,1 -
11.07.2018 14:00:00 28,8 14,9 11 6 SSW 1013,4 0,0
11.07.2018 13:00:00 29,4 11,9 5 3 WNW 1013,8 -
11.07.2018 12:00:00 28,1 13,2 8 4 WSW 1014,2 -
11.07.2018 11:00:00 26,8 12,4 13 7 NW 1014,6 -
11.07.2018 10:00:00 25,7 12,5 13 7 WNW 1014,9 -
11.07.2018 09:00:00 23,0 16,2 8 4 W 1015,3 -
11.07.2018 08:00:00 20,8 17,0 11 6 SW 1015,6 0,0
11.07.2018 07:00:00 19,6 15,8 8 4 SW 1015,5 -
11.07.2018 06:00:00 18,4 14,6 11 6 WSW 1015,6 -
11.07.2018 05:00:00 18,5 15,1 11 6 WSW 1015,5 -
11.07.2018 04:00:00 19,5 13,3 4 2 WSW 1015,3 -
11.07.2018 03:00:00 18,6 12,3 11 6 NW 1015,8 -
11.07.2018 02:00:00 19,5 11,2 11 6 WNW 1015,9 0,0
11.07.2018 01:00:00 20,4 11,5 11 6 W 1015,9 -
11.07.2018 00:00:00 20,9 12,8 8 4 WSW 1016,1 -
10.07.2018 23:00:00 21,8 13,3 4 2 SW 1015,9 -
10.07.2018 22:00:00 21,2 13,0 5 3 SE 1016,0 -
10.07.2018 21:00:00 22,5 13,2 9 5 SE 1015,3 -
10.07.2018 20:00:00 24,1 12,9 8 4 ENE 1014,7 0,0
10.07.2018 19:00:00 25,9 13,3 13 7 NE 1014,2 -
10.07.2018 18:00:00 26,5 13,5 18 10 ENE 1013,7 -
10.07.2018 17:00:00 27,2 13,1 15 8 NE 1013,4 -
10.07.2018 16:00:00 28,1 13,2 28 15 SSW 1013,5 -
10.07.2018 15:00:00 27,7 12,1 28 15 NNE 1013,8 -
10.07.2018 14:00:00 27,8 11,4 24 13 N 1013,9 0,0
10.07.2018 13:00:00 27,1 10,7 18 10 NNE 1014,4 -
10.07.2018 12:00:00 26,5 11,4 37 20 NE 1014,4 -
10.07.2018 11:00:00 25,8 11,2 31 17 NNE 1014,7 -
10.07.2018 10:00:00 24,1 11,7 13 7 NNE 1015,1 -
10.07.2018 09:00:00 22,7 11,4 28 15 NNE 1015,4 -
10.07.2018 08:00:00 20,5 10,8 22 12 N 1015,6 -
10.07.2018 07:00:00 19,1 10,8 28 15 N 1015,7 -
10.07.2018 06:00:00 17,7 13,7 24 13 N 1015,8 -
10.07.2018 05:00:00 17,6 14,2 22 12 N 1015,7 -
10.07.2018 04:00:00 17,1 13,7 22 12 N 1015,8 -
10.07.2018 03:00:00 17,2 12,5 26 14 N 1016,2 -
10.07.2018 02:00:00 18,2 11,0 21 11 N 1016,4 0,0
10.07.2018 01:00:00 18,6 10,1 21 11 N 1016,9 -
10.07.2018 00:00:00 19,2 10,2 16 9 N 1016,9 -
09.07.2018 23:00:00 19,4 10,1 18 10 NNE 1016,7 -
09.07.2018 22:00:00 19,4 10,9 13 7 NNE 1016,5 -
09.07.2018 21:00:00 21,1 11,4 24 13 NE 1015,5 -
09.07.2018 20:00:00 22,8 9,5 31 17 NE 1014,9 0,0

tt = temperature
td = dewpoint
ff = wind speed
dd = wind direction
ppp = reduced air pressure
rr = precipitation

Next stations